Latest Weather Observations for Brisbane

IDQ60901

Issued at 11:55 am EST Friday 19 September 2014 (issued every 10 minutes, with the page automatically refreshed every 10 minutes)

About weather observations | Map of Brisbane area stations | Latest observations for Brisbane area | Other Formats
Station Details ID: 040913 Name: BRISBANE Lat: -27.48 Lon: 153.04 Height: 8.13 m
Data from the previous 72 hours. | See also: Recent months at Brisbane
Date/Time
EST
Tmp

°C
App
Tmp
°C
Dew
Point
°C
Rel
Hum
%
Delta-T

°C
Wind Press
QNH
hPa
Press
MSL
hPa
Rain
since
9 am
mm
Dir
 
Spd
km/h
Gust
km/h
Spd
kts
Gust
kts
19/11:30am 23.9 22.4 9.1 39 8.0 NNE 7 15 4 8 1019.4 1019.4 0.0
19/11:00am 23.0 20.0 7.9 38 7.9 ENE 13 20 7 11 1020.1 1020.1 0.0
19/10:30am 22.8 21.7 9.9 44 7.0 NNW 6 11 3 6 1020.5 1020.5 0.0
19/10:00am 22.6 21.6 10.4 46 6.7 N 6 13 3 7 1021.0 1021.0 0.0
19/09:30am 20.9 20.2 10.1 50 5.8 WNW 4 7 2 4 1021.4 1021.4 0.0
19/09:00am 20.2 19.4 9.7 51 5.6 SW 4 6 2 3 1021.5 1021.5 0.0
19/08:30am 17.9 16.8 8.5 54 4.8 WSW 4 7 2 4 1021.7 1021.7 0.0
19/08:00am 16.7 15.2 8.4 58 4.2 SW 6 9 3 5 1021.6 1021.6 0.0
19/07:30am 15.3 13.7 8.1 62 3.6 WSW 6 9 3 5 1021.5 1021.5 0.0
19/07:00am 13.8 12.6 8.0 68 2.9 WSW 4 11 2 6 1021.1 1021.1 0.0
19/06:30am 12.5 11.3 8.0 74 2.2 SW 4 7 2 4 1020.6 1020.6 0.0
19/06:00am 11.4 10.1 7.7 78 1.8 SW 4 7 2 4 1020.6 1020.6 0.0
19/05:30am 11.9 10.7 8.2 78 1.8 SW 4 7 2 4 1020.5 1020.5 0.0
19/05:00am 11.5 10.9 7.6 77 1.9 CALM 0 4 0 2 1020.0 1020.0 0.0
19/04:30am 12.0 11.1 7.9 76 2.0 SW 2 6 1 3 1019.6 1019.6 0.0
19/04:00am 11.6 11.1 7.7 77 1.9 CALM 0 0 0 0 1019.2 1019.2 0.0
19/03:30am 12.2 11.6 7.5 73 2.3 CALM 0 0 0 0 1019.1 1019.1 0.0
19/03:00am 12.9 12.1 8.0 72 2.4 WSW 2 6 1 3 1019.3 1019.3 0.0
19/02:30am 12.8 11.8 7.5 70 2.6 SW 2 7 1 4 1019.1 1019.1 0.0
19/02:00am 13.2 12.4 8.1 71 2.5 SW 2 6 1 3 1019.4 1019.4 0.0
19/01:30am 13.4 12.5 9.1 75 2.2 W 4 6 2 3 1019.5 1019.5 0.0
19/01:00am 13.6 13.8 10.6 82 1.6 CALM 0 4 0 2 1019.5 1019.5 0.0
19/12:30am 13.0 12.9 9.4 79 1.8 CALM 0 0 0 0 1019.7 1019.7 0.0
19/12:00am 13.6 13.1 9.5 76 2.1 SSE 2 4 1 2 1019.9 1019.9 0.0
 
Date/Time
EST
Tmp

°C
App
Tmp
°C
Dew
Point
°C
Rel
Hum
%
Delta-T

°C
Wind Press
QNH
hPa
Press
MSL
hPa
Rain
since
9 am
mm
Dir
 
Spd
km/h
Gust
km/h
Spd
kts
Gust
kts
18/11:30pm 14.4 14.3 9.6 73 2.5 CALM 0 0 0 0 1020.0 1020.0 0.0
18/11:00pm 14.4 14.2 9.2 71 2.6 NNE 0 0 0 0 1019.9 1019.9 0.0
18/10:30pm 15.3 15.1 9.2 67 3.1 CALM 0 4 0 2 1019.9 1019.9 0.0
18/10:00pm 15.9 15.8 9.3 65 3.4 N 0 4 0 2 1019.9 1019.9 0.0
18/09:30pm 16.6 16.2 9.8 64 3.6 NNE 2 4 1 2 1019.8 1019.8 0.0
18/09:00pm 16.4 16.2 9.1 62 3.8 CALM 0 2 0 1 1019.7 1019.7 0.0
18/08:30pm 17.6 16.8 9.5 59 4.2 ENE 4 6 2 3 1019.4 1019.4 0.0
18/08:00pm 18.3 17.4 9.4 56 4.7 ENE 4 7 2 4 1019.2 1019.2 0.0
18/07:30pm 18.5 17.8 8.5 52 5.2 NNE 2 6 1 3 1018.9 1018.9 0.0
18/07:00pm 19.0 17.9 8.4 50 5.5 NE 4 9 2 5 1018.4 1018.4 0.0
18/06:30pm 19.4 17.9 8.4 49 5.7 NE 6 13 3 7 1018.0 1018.0 0.0
18/06:00pm 20.0 18.1 7.7 45 6.3 NE 7 15 4 8 1017.5 1017.5 0.0
18/05:30pm 20.5 18.6 7.5 43 6.7 ENE 7 15 4 8 1016.9 1016.9 0.0
18/05:00pm 21.5 18.6 6.6 38 7.6 ENE 11 20 6 11 1016.5 1016.5 0.0
18/04:30pm 22.1 18.6 5.5 34 8.3 ENE 13 20 7 11 1016.0 1016.0 0.0
18/04:00pm 22.9 18.9 4.9 31 8.9 ENE 15 20 8 11 1015.6 1015.6 0.0
18/03:30pm 26.9 23.8 -2.8 14 13.2 SW 4 15 2 8 1015.1 1015.1 0.0
18/03:00pm 26.8 23.4 -2.0 15 12.9 WNW 6 11 3 6 1015.2 1015.2 0.0
18/02:30pm 26.4 22.7 -3.2 14 13.0 S 7 15 4 8 1015.3 1015.3 0.0
18/02:00pm 26.3 22.7 -2.4 15 12.7 WSW 7 17 4 9 1015.4 1015.4 0.0
18/01:30pm 26.1 22.1 -2.5 15 12.7 WSW 9 22 5 12 1015.9 1015.9 0.0
18/01:00pm 26.0 22.3 -0.1 18 12.1 W 9 17 5 9 1016.4 1016.4 0.0
18/12:30pm 25.4 22.0 -0.6 18 11.9 WSW 7 17 4 9 1016.8 1016.8 0.0
18/12:00pm 25.2 22.0 0.7 20 11.4 SW 7 15 4 8 1017.2 1017.2 0.0
18/11:30am 24.1 20.6 1.1 22 10.7 WSW 9 24 5 13 1017.7 1017.7 0.0
18/11:00am 24.3 20.7 0.6 21 10.9 SW 9 17 5 9 1018.2 1018.2 0.0
18/10:30am 24.0 19.8 1.6 23 10.5 W 13 26 7 14 1018.7 1018.7 0.0
18/10:00am 23.0 18.7 0.8 23 10.2 WSW 13 24 7 13 1019.0 1019.0 0.0
18/09:30am 22.8 18.9 1.2 24 10.0 SW 11 20 6 11 1019.2 1019.2 0.0
18/09:00am 22.2 19.1 1.3 25 9.6 WSW 7 22 4 12 1019.5 1019.5 0.0
18/08:30am 21.5 19.4 3.7 31 8.6 SSW 4 9 2 5 1019.5 1019.5 0.0
18/08:00am 19.7 17.3 4.2 36 7.4 SW 6 13 3 7 1019.5 1019.5 0.0
18/07:30am 18.6 16.1 3.6 37 7.0 WSW 6 11 3 6 1019.4 1019.4 0.0
18/07:00am 17.0 14.9 4.0 42 6.1 SW 4 7 2 4 1019.1 1019.1 0.0
18/06:30am 14.1 12.8 6.2 59 3.8 WSW 2 6 1 3 1018.7 1018.7 0.0
18/06:00am 11.2 10.1 5.3 67 2.7 CALM 0 4 0 2 1018.3 1018.3 0.0
18/05:30am 11.7 10.3 5.3 65 2.9 S 2 4 1 2 1018.0 1018.0 0.0
18/05:00am 12.3 11.2 5.0 61 3.3 CALM 0 0 0 0 1017.4 1017.4 0.0
18/04:30am 13.2 11.2 4.6 56 3.9 SSE 4 6 2 3 1017.1 1017.1 0.0
18/04:00am 13.8 12.1 4.1 52 4.4 S 2 6 1 3 1016.6 1016.6 0.0
18/03:30am 15.1 13.7 3.6 46 5.2 CALM 0 0 0 0 1016.4 1016.4 0.0
18/03:00am 15.7 13.9 3.2 43 5.7 WSW 2 6 1 3 1016.0 1016.0 0.0
18/02:30am 16.7 14.5 3.4 41 6.1 WSW 4 6 2 3 1015.8 1015.8 0.0
18/02:00am 17.2 15.0 3.5 40 6.3 WSW 4 7 2 4 1015.6 1015.6 0.0
18/01:30am 17.1 14.6 3.8 41 6.2 WSW 6 9 3 5 1015.5 1015.5 0.0
18/01:00am 16.9 15.2 3.9 42 6.1 WSW 2 6 1 3 1015.3 1015.3 0.0
18/12:30am 17.9 15.4 3.8 39 6.6 SW 6 11 3 6 1014.9 1014.9 0.0
18/12:00am 17.6 15.5 3.9 40 6.4 WSW 4 6 2 3 1015.2 1015.2 0.0
 
Date/Time
EST
Tmp

°C
App
Tmp
°C
Dew
Point
°C
Rel
Hum
%
Delta-T

°C
Wind Press
QNH
hPa
Press
MSL
hPa
Rain
since
9 am
mm
Dir
 
Spd
km/h
Gust
km/h
Spd
kts
Gust
kts
17/11:30pm 18.4 16.3 3.8 38 6.9 WSW 4 6 2 3 1015.1 1015.1 0.0
17/11:00pm 18.9 17.1 3.5 36 7.2 WSW 2 7 1 4 1014.9 1014.9 0.0
17/10:30pm 19.6 17.5 3.7 35 7.5 WSW 4 9 2 5 1014.9 1014.9 0.0
17/10:00pm 19.4 17.7 5.8 41 6.7 WSW 4 7 2 4 1014.7 1014.7 0.0
17/09:30pm 15.6 16.0 11.2 75 2.4 CALM 0 0 0 0 1014.9 1014.9 0.0
17/09:00pm 16.1 16.5 11.1 72 2.7 CALM 0 0 0 0 1014.5 1014.5 0.0
17/08:30pm 17.1 17.5 11.2 68 3.2 CALM 0 0 0 0 1014.3 1014.3 0.0
17/08:00pm 17.8 18.0 10.7 63 3.8 CALM 0 0 0 0 1014.0 1014.0 0.0
17/07:30pm 19.1 18.9 10.4 57 4.7 NE 2 6 1 3 1013.6 1013.6 0.0
17/07:00pm 21.3 20.7 10.5 50 5.9 NE 4 7 2 4 1013.2 1013.2 0.0
17/06:30pm 22.1 21.7 9.6 45 6.7 SSW 2 9 1 5 1012.9 1012.9 0.0
17/06:00pm 22.9 21.8 10.0 44 7.0 NNE 6 13 3 7 1012.1 1012.1 0.0
17/05:30pm 23.8 22.8 9.0 39 8.0 ENE 4 7 2 4 1011.6 1011.6 0.0
17/05:00pm 25.1 23.3 7.3 32 9.4 NNE 6 13 3 7 1011.1 1011.1 0.0
17/04:30pm 28.4 24.4 0.2 16 13.4 W 11 20 6 11 1010.8 1010.8 0.0
17/04:00pm 28.8 24.0 0.5 16 13.5 WNW 15 33 8 18 1010.4 1010.4 0.0
17/03:30pm 29.0 24.8 1.5 17 13.4 W 13 32 7 17 1010.3 1010.3 0.0
17/03:00pm 28.8 23.3 2.1 18 13.1 W 20 32 11 17 1010.5 1010.5 0.0
17/02:30pm 28.5 23.2 1.9 18 13.0 W 19 30 10 16 1010.5 1010.5 0.0
17/02:00pm 29.0 26.5 4.5 21 12.6 NW 7 19 4 10 1011.0 1011.0 0.0
17/01:30pm 28.3 24.9 3.9 21 12.3 W 11 20 6 11 1011.5 1011.5 0.0
17/01:00pm 27.9 23.7 3.6 21 12.2 W 15 26 8 14 1012.2 1012.2 0.0
17/12:30pm 27.2 22.0 3.7 22 11.7 W 20 30 11 16 1012.6 1012.6 0.0
17/12:00pm 26.3 21.9 2.9 22 11.5 WSW 15 24 8 13 1013.2 1013.2 0.0
17/11:30am 26.4 21.9 2.3 21 11.7 W 15 24 8 13 1013.6 1013.6 0.0
17/11:00am 26.0 22.2 3.9 24 11.0 W 13 28 7 15 1014.2 1014.2 0.0
17/10:30am 25.7 22.4 4.8 26 10.6 W 11 22 6 12 1014.6 1014.6 0.0
17/10:00am 25.9 23.0 4.4 25 10.8 W 9 20 5 11 1015.1 1015.1 0.0
17/09:30am 24.9 20.3 3.5 25 10.5 W 17 28 9 15 1015.1 1015.1 0.0
17/09:00am 24.4 22.8 8.0 35 8.7 SW 6 13 3 7 1015.2 1015.2 0.0
17/08:30am 22.2 21.2 10.4 47 6.5 SSW 6 9 3 5 1015.4 1015.4 0.0
17/08:00am 20.9 20.6 11.3 54 5.3 S 4 6 2 3 1015.2 1015.2 0.0
17/07:30am 19.1 19.0 10.9 59 4.5 SW 2 7 1 4 1015.2 1015.2 0.0
17/07:00am 16.6 17.5 12.8 78 2.1 CALM 0 0 0 0 1014.8 1014.8 0.0
17/06:30am 13.1 13.8 12.2 94 0.5 CALM 0 0 0 0 1014.5 1014.5 0.0
17/06:00am 11.9 12.2 11.0 94 0.5 CALM 0 0 0 0 1014.1 1014.1 0.0
17/05:30am 12.2 12.6 11.1 93 0.6 CALM 0 0 0 0 1013.7 1013.7 0.0
17/05:00am 12.5 12.9 11.1 91 0.7 CALM 0 0 0 0 1013.5 1013.5 0.0
17/04:30am 13.0 13.4 11.4 90 0.8 CALM 0 0 0 0 1013.3 1013.3 0.0
17/04:00am 13.6 14.2 12.0 90 0.9 CALM 0 0 0 0 1013.0 1013.0 0.0
17/03:30am 14.0 14.7 12.2 89 1.0 CALM 0 0 0 0 1012.6 1012.6 0.0
17/03:00am 14.3 14.6 12.3 88 1.1 E 2 4 1 2 1012.5 1012.5 0.0
17/02:30am 15.0 15.9 12.9 87 1.2 CALM 0 0 0 0 1012.4 1012.4 0.0
17/02:00am 16.1 17.2 13.6 85 1.4 CALM 0 4 0 2 1012.7 1012.7 0.0
17/01:30am 16.9 17.7 13.8 82 1.8 ENE 2 4 1 2 1012.7 1012.7 0.0
17/01:00am 17.9 19.1 14.8 82 1.8 NNE 2 7 1 4 1012.8 1012.8 0.0
17/12:30am 18.0 18.9 15.1 83 1.7 NNE 4 7 2 4 1013.0 1013.0 0.0
17/12:00am 17.9 18.8 15.2 84 1.6 NNE 4 6 2 3 1013.0 1013.0 0.0
 
Date/Time
EST
Tmp

°C
App
Tmp
°C
Dew
Point
°C
Rel
Hum
%
Delta-T

°C
Wind Press
QNH
hPa
Press
MSL
hPa
Rain
since
9 am
mm
Dir
 
Spd
km/h
Gust
km/h
Spd
kts
Gust
kts
16/11:30pm 18.1 19.8 15.2 83 1.7 CALM 0 4 0 2 1013.2 1013.2 0.0
16/11:00pm 18.7 20.5 15.4 81 1.9 CALM 0 6 0 3 1013.2 1013.2 0.0
16/10:30pm 19.0 20.7 16.2 84 1.7 ENE 2 4 1 2 1013.0 1013.0 0.0
16/10:00pm 19.2 20.7 16.6 85 1.6 NNE 4 7 2 4 1012.8 1012.8 0.0
16/09:30pm 19.5 20.6 16.5 83 1.8 NNE 6 9 3 5 1012.8 1012.8 0.0
16/09:00pm 20.1 21.2 16.7 81 2.1 N 6 13 3 7 1012.8 1012.8 0.0
16/08:30pm 20.3 21.4 16.7 80 2.2 N 6 13 3 7 1012.7 1012.7 0.0
16/08:00pm 20.5 21.3 15.9 75 2.7 NNE 6 11 3 6 1012.6 1012.6 0.0
16/07:30pm 21.3 21.6 16.0 72 3.2 NNW 9 20 5 11 1013.0 1013.0 0.0
16/07:00pm 21.1 21.8 16.1 73 3.0 N 7 13 4 7 1012.2 1012.2 0.0
16/06:30pm 21.8 22.3 15.6 68 3.7 N 7 22 4 12 1012.0 1012.0 0.0
16/06:00pm 22.2 22.2 15.1 64 4.2 N 9 20 5 11 1011.6 1011.6 0.0
16/05:30pm 22.9 23.0 14.5 59 5.0 N 7 20 4 11 1011.5 1011.5 0.0
16/05:00pm 22.5 22.9 16.3 68 3.8 NNE 9 20 5 11 1010.7 1010.7 0.0
16/04:30pm 23.7 24.4 16.2 63 4.6 NNE 7 17 4 9 1010.9 1010.9 0.0
16/04:00pm 24.3 23.5 15.2 57 5.5 NNE 13 26 7 14 1010.7 1010.7 0.0
16/03:30pm 24.8 25.0 16.8 61 4.9 NNE 11 22 6 12 1010.8 1010.8 0.0
16/03:00pm 24.3 24.1 16.6 62 4.7 NNE 13 24 7 13 1011.3 1011.3 0.0
16/02:30pm 24.0 23.8 16.8 64 4.4 NNE 13 28 7 15 1011.3 1011.3 0.0
16/02:00pm 24.2 23.6 15.7 59 5.1 NE 13 22 7 12 1011.6 1011.6 0.0
16/01:30pm 25.7 25.5 16.8 58 5.5 NE 13 24 7 13 1012.0 1012.0 0.0
16/01:00pm 25.2 24.4 16.1 57 5.6 ENE 15 26 8 14 1012.7 1012.7 0.0
16/12:30pm 25.4 24.8 14.5 51 6.5 NE 11 19 6 10 1013.2 1013.2 0.0
16/12:00pm 26.4 25.9 13.9 46 7.4 ENE 9 20 5 11 1013.8 1013.8 0.0

Latest Capital City Observations: Canberra | Sydney | Melbourne | Brisbane | Adelaide | Perth | Hobart | Darwin

Other Formats:

Comma delimited format used in spreadsheet applications
http://www.bom.gov.au/fwo/IDQ60901/IDQ60901.94576.axf

JavaScript Object Notation format (JSON) in row-major order
http://www.bom.gov.au/fwo/IDQ60901/IDQ60901.94576.json